Time;durP1;ratioP1;P1;durP2;ratioP2;P2;SDS_P1;SDS_P2;PMS_P1;PMS_P2;Temp;Humidity;BMP_temperature;BMP_pressure;BME280_temperature;BME280_humidity;BME280_pressure;Samples;Min_cycle;Max_cycle;Signal;HPM_P1;HPM_P2
2023/01/10 00:01:49;;;;;;;108.20;96.80;;;;;;;5.71;100.00;99331.69;1725050;83;25722;-47
2023/01/10 00:04:16;;;;;;;104.80;93.72;;;;;;;5.69;100.00;99333.89;1725551;83;26134;-46
2023/01/10 00:06:44;;;;;;;110.63;98.52;;;;;;;5.69;100.00;99337.13;1725635;83;25648;-46
2023/01/10 00:09:10;;;;;;;107.45;96.25;;;;;;;5.67;100.00;99340.11;1723117;82;27495;-48
2023/01/10 00:14:25;;;;;;;105.90;95.05;;;;;;;5.66;100.00;99348.45;1717955;83;25497;-50
2023/01/10 00:16:51;;;;;;;106.07;95.25;;;;;;;5.66;100.00;99353.81;1718015;83;25470;-47
2023/01/10 00:19:17;;;;;;;106.27;95.00;;;;;;;5.65;100.00;99353.00;1717881;83;25556;-48
2023/01/10 00:21:45;;;;;;;108.05;97.25;;;;;;;5.65;100.00;99353.55;1717848;83;27413;-47
2023/01/10 00:24:22;;;;;;;107.35;95.70;;;;;;;5.66;100.00;99362.65;1717771;83;25462;-49
2023/01/10 00:26:51;;;;;;;109.27;97.82;;;;;;;5.66;100.00;99361.86;1715731;83;25585;-48
2023/01/10 00:29:26;;;;;;;105.90;95.03;;;;;;;5.67;100.00;99365.59;1717943;83;25661;-47
2023/01/10 00:31:54;;;;;;;107.63;96.28;;;;;;;5.66;100.00;99364.55;1718095;83;25571;-48
2023/01/10 00:34:23;;;;;;;107.52;96.08;;;;;;;5.64;100.00;99368.87;1694944;83;27592;-49
2023/01/10 00:36:49;;;;;;;108.25;97.15;;;;;;;5.64;100.00;99376.13;1695226;83;25635;-46
2023/01/10 00:39:19;;;;;;;107.30;95.95;;;;;;;5.64;100.00;99378.26;1717833;83;25575;-47
2023/01/10 00:44:34;;;;;;;105.95;94.83;;;;;;;5.65;100.00;99385.20;1717964;83;25421;-48
2023/01/10 00:47:01;;;;;;;105.10;94.22;;;;;;;5.64;100.00;99388.99;1717890;83;28227;-48
2023/01/10 00:49:29;;;;;;;103.75;93.33;;;;;;;5.67;100.00;99401.00;1717789;83;25643;-52
2023/01/10 00:51:57;;;;;;;110.90;99.45;;;;;;;5.66;100.00;99401.55;1717839;83;25644;-46
2023/01/10 00:54:23;;;;;;;106.85;95.72;;;;;;;5.65;100.00;99403.19;1717835;83;25847;-48
2023/01/10 00:56:50;;;;;;;109.92;98.33;;;;;;;5.65;100.00;99408.00;1717821;83;25621;-46
2023/01/10 00:59:18;;;;;;;107.67;96.37;;;;;;;5.65;100.00;99407.22;1717823;83;27495;-47
2023/01/10 01:01:46;;;;;;;106.73;95.83;;;;;;;5.65;100.00;99401.84;1717960;83;25808;-48
2023/01/10 01:04:12;;;;;;;105.10;94.77;;;;;;;5.66;100.00;99403.45;1717779;83;25604;-48
2023/01/10 01:06:39;;;;;;;107.15;95.87;;;;;;;5.65;100.00;99401.30;1717819;83;25419;-48
2023/01/10 01:09:05;;;;;;;107.15;96.17;;;;;;;5.66;100.00;99408.27;1719958;82;25540;-48
2023/01/10 01:11:31;;;;;;;109.63;98.03;;;;;;;5.67;100.00;99411.73;1734457;82;29713;-51
2023/01/10 01:13:57;;;;;;;112.25;100.80;;;;;;;5.67;100.00;99418.44;1734318;82;25559;-48
2023/01/10 01:16:26;;;;;;;106.43;95.20;;;;;;;5.67;100.00;99421.13;1734415;82;25629;-51
2023/01/10 01:18:52;;;;;;;115.90;104.10;;;;;;;5.66;100.00;99416.87;1734408;82;25413;-48
2023/01/10 01:21:20;;;;;;;106.03;94.13;;;;;;;5.66;100.00;99427.05;1734428;82;25386;-46
2023/01/10 01:23:46;;;;;;;105.00;94.22;;;;;;;5.66;100.00;99426.26;1734371;82;27409;-47
2023/01/10 01:26:12;;;;;;;104.90;94.25;;;;;;;5.65;100.00;99426.78;1734301;82;27152;-48
2023/01/10 01:28:41;;;;;;;103.73;92.83;;;;;;;5.64;100.00;99425.21;1734417;82;25461;-46
2023/01/10 01:31:10;;;;;;;107.90;97.22;;;;;;;5.66;100.00;99426.26;1707351;82;26174;-47
2023/01/10 01:33:38;;;;;;;113.55;101.62;;;;;;;5.66;100.00;99432.97;1734568;82;30340;-48
2023/01/10 01:36:12;;;;;;;108.85;97.95;;;;;;;5.66;100.00;99437.78;1734375;82;29487;-47
2023/01/10 01:38:41;;;;;;;106.55;95.22;;;;;;;5.66;100.00;99439.67;1734397;82;25645;-46
2023/01/10 01:44:15;;;;;;;49.30;40.78;;;;;;;5.65;100.00;99438.86;1734445;82;25551;-47
2023/01/10 01:47:04;;;;;;;99.95;89.45;;;;;;;5.66;100.00;99445.83;1734472;82;25457;-48
2023/01/10 01:49:39;;;;;;;79.40;70.92;;;;;;;5.65;100.00;99447.46;1734588;82;27976;-47
2023/01/10 01:52:12;;;;;;;91.65;81.95;;;;;;;5.64;100.00;99445.33;1732901;82;25488;-47
2023/01/10 01:54:39;;;;;;;68.80;44.27;;;;;;;5.66;100.00;99459.80;1734451;82;25586;-47
2023/01/10 01:57:10;;;;;;;56.65;24.98;;;;;;;5.64;100.00;99456.06;1734377;82;25433;-48
2023/01/10 01:59:48;;;;;;;56.00;23.30;;;;;;;5.64;100.00;99451.25;1734512;82;25553;-47
2023/01/10 02:02:20;;;;;;;60.45;26.90;;;;;;;5.66;100.00;99454.43;1734439;82;28245;-48
2023/01/10 02:04:58;;;;;;;54.58;25.10;;;;;;;5.65;100.00;99453.61;1734327;82;25584;-48
2023/01/10 02:07:29;;;;;;;58.42;30.23;;;;;;;5.66;100.00;99453.09;1730996;82;25684;-47
2023/01/10 02:10:04;;;;;;;59.65;24.55;;;;;;;5.66;100.00;99453.88;1733733;82;25398;-47
2023/01/10 02:12:32;;;;;;;54.55;26.07;;;;;;;5.67;100.00;99463.53;1734556;82;25584;-49
2023/01/10 02:15:01;;;;;;;60.30;27.93;;;;;;;5.67;100.00;99464.05;1734585;82;27511;-47
2023/01/10 02:17:27;;;;;;;62.43;30.07;;;;;;;5.66;100.00;99468.63;1734570;82;25630;-48
2023/01/10 02:20:00;;;;;;;56.00;25.20;;;;;;;5.66;100.00;99469.97;1734421;82;25730;-47
2023/01/10 02:23:10;;;;;;;59.85;29.55;;;;;;;5.67;100.00;99466.20;1734352;82;25529;-48
2023/01/10 02:26:27;;;;;;;62.60;25.50;;;;;;;5.67;100.00;99473.44;1734419;82;25411;-47
2023/01/10 02:29:23;;;;;;;61.90;26.85;;;;;;;5.65;100.00;99475.08;1734533;82;27959;-47
2023/01/10 02:32:08;;;;;;;60.60;25.72;;;;;;;5.65;100.00;99474.30;1734324;82;25611;-47
2023/01/10 02:35:01;;;;;;;62.25;27.90;;;;;;;5.63;100.00;99478.61;1734451;82;25400;-46
2023/01/10 02:38:02;;;;;;;69.07;30.48;;;;;;;5.63;100.00;99472.45;1734392;82;25623;-47
2023/01/10 02:41:07;;;;;;;66.70;28.12;;;;;;;5.62;100.00;99482.40;1700211;84;25647;-47
2023/01/10 02:43:38;;;;;;;68.57;31.15;;;;;;;5.59;100.00;99476.28;1712075;83;27413;-47
2023/01/10 02:46:10;;;;;;;63.10;26.00;;;;;;;5.59;100.00;99482.43;1712515;83;25494;-47
2023/01/10 02:48:36;;;;;;;65.97;31.52;;;;;;;5.59;100.00;99480.30;1712788;83;25674;-47
2023/01/10 02:51:26;;;;;;;61.98;26.52;;;;;;;5.59;100.00;99481.64;1712616;83;25611;-47
2023/01/10 02:54:09;;;;;;;63.55;26.00;;;;;;;5.59;100.00;99482.98;1712754;83;25559;-47
2023/01/10 02:56:53;;;;;;;68.28;31.02;;;;;;;5.58;100.00;99486.22;1712867;83;27342;-47
2023/01/10 02:59:46;;;;;;;83.70;33.78;;;;;;;5.59;100.00;99485.67;1712719;83;25460;-48
2023/01/10 03:02:26;;;;;;;92.97;75.37;;;;;;;5.59;100.00;99489.14;1687145;85;25629;-48
2023/01/10 03:05:13;;;;;;;104.60;90.53;;;;;;;5.59;100.00;99497.19;1687135;85;25676;-48
2023/01/10 03:08:18;;;;;;;99.25;85.03;;;;;;;5.61;100.00;99500.92;1687172;85;25677;-48
2023/01/10 03:11:06;;;;;;;93.78;80.28;;;;;;;5.59;100.00;99502.55;1680535;84;27408;-47
2023/01/10 03:13:44;;;;;;;96.05;85.42;;;;;;;5.61;100.00;99507.63;1682159;85;25751;-47
2023/01/10 03:16:16;;;;;;;88.60;67.47;;;;;;;5.61;100.00;99506.28;1675084;84;26211;-48
2023/01/10 03:18:48;;;;;;;111.15;95.67;;;;;;;5.61;100.00;99507.07;1666628;84;25612;-47
2023/01/10 03:21:19;;;;;;;116.70;101.00;;;;;;;5.61;100.00;99508.41;1689358;84;25646;-50
2023/01/10 03:23:50;;;;;;;109.12;95.85;;;;;;;5.63;100.00;99510.80;1689884;84;27978;-47
2023/01/10 03:26:22;;;;;;;113.77;97.53;;;;;;;5.65;100.00;99501.12;1689882;84;25265;-48
2023/01/10 03:28:54;;;;;;;104.60;79.30;;;;;;;5.65;100.00;99504.59;1689178;84;25508;-47
2023/01/10 03:31:28;;;;;;;106.35;85.22;;;;;;;5.66;100.00;99508.88;1689998;84;25690;-47
2023/01/10 03:33:57;;;;;;;114.92;102.27;;;;;;;5.67;100.00;99512.34;1687749;84;25580;-47
2023/01/10 03:36:57;;;;;;;111.85;99.58;;;;;;;5.68;100.00;99513.95;1666593;84;29587;-47
2023/01/10 03:39:55;;;;;;;111.17;95.92;;;;;;;5.68;100.00;99517.42;1703584;83;25725;-47
2023/01/10 03:45:46;;;;;;;118.05;101.42;;;;;;;5.71;100.00;99536.17;1642551;87;27462;-50
2023/01/10 03:48:15;;;;;;;111.17;98.87;;;;;;;5.73;100.00;99538.80;1641402;87;25567;-46
2023/01/10 03:50:44;;;;;;;114.05;101.67;;;;;;;5.74;100.00;99536.94;1642646;87;27471;-49
2023/01/10 03:53:14;;;;;;;110.10;98.15;;;;;;;5.75;100.00;99539.84;1642555;87;25470;-47
2023/01/10 03:55:43;;;;;;;110.32;98.30;;;;;;;5.74;100.00;99545.77;1642694;87;31869;-47
2023/01/10 03:58:09;;;;;;;108.12;96.63;;;;;;;5.74;100.00;99546.33;1642406;87;25641;-47
2023/01/10 04:00:36;;;;;;;107.70;96.17;;;;;;;5.75;100.00;99551.37;1642466;87;25522;-47
2023/01/10 04:03:02;;;;;;;112.10;99.62;;;;;;;5.76;100.00;99557.55;1642396;86;27352;-46
2023/01/10 04:05:28;;;;;;;100.78;87.70;;;;;;;5.76;100.00;99552.98;1642322;87;25502;-47
2023/01/10 04:07:54;;;;;;;79.60;42.55;;;;;;;5.76;100.00;99552.19;1642435;87;25715;-46
2023/01/10 04:10:21;;;;;;;83.25;42.53;;;;;;;5.78;100.00;99556.70;1643170;87;25584;-46
2023/01/10 04:12:47;;;;;;;79.12;41.23;;;;;;;5.79;100.00;99563.12;1623194;87;25618;-46
2023/01/10 04:15:17;;;;;;;70.42;31.70;;;;;;;5.79;100.00;99561.78;1645953;87;29501;-48
2023/01/10 04:17:44;;;;;;;77.25;37.93;;;;;;;5.79;100.00;99566.36;1646117;87;25819;-46
2023/01/10 04:20:12;;;;;;;80.50;34.70;;;;;;;5.79;100.00;99567.70;1651308;85;25527;-47
2023/01/10 04:22:38;;;;;;;79.90;35.10;;;;;;;5.78;100.00;99571.47;1676578;85;26047;-47
2023/01/10 04:25:07;;;;;;;72.70;36.88;;;;;;;5.80;100.00;99580.02;1677262;85;25599;-47
2023/01/10 04:27:34;;;;;;;80.28;48.60;;;;;;;5.79;100.00;99578.44;1677217;85;27291;-47
2023/01/10 04:30:00;;;;;;;100.10;72.20;;;;;;;5.79;100.00;99581.13;1677061;85;27215;-47
2023/01/10 04:32:26;;;;;;;74.40;30.95;;;;;;;5.80;100.00;99588.07;1677123;85;25618;-47
2023/01/10 04:34:52;;;;;;;83.10;54.42;;;;;;;5.78;100.00;99592.38;1677146;85;25451;-47
2023/01/10 04:37:22;;;;;;;73.35;29.63;;;;;;;5.80;100.00;99600.94;1677182;85;25608;-47
2023/01/10 04:39:48;;;;;;;64.47;25.80;;;;;;;5.80;100.00;99593.44;1677157;85;29575;-47
2023/01/10 04:42:18;;;;;;;69.60;26.97;;;;;;;5.83;100.00;99598.78;1677097;85;25994;-47
2023/01/10 04:44:44;;;;;;;67.85;26.23;;;;;;;5.81;100.00;99596.38;1648966;85;25537;-47
2023/01/10 04:47:10;;;;;;;71.45;27.73;;;;;;;5.82;100.00;99604.67;1677156;85;25412;-48
2023/01/10 04:49:36;;;;;;;64.00;27.77;;;;;;;5.81;100.00;99612.48;1677202;85;25488;-48
2023/01/10 04:52:03;;;;;;;71.12;35.15;;;;;;;5.78;100.00;99609.05;1677118;85;27391;-47
2023/01/10 04:54:29;;;;;;;60.63;31.70;;;;;;;5.78;100.00;99617.09;1677099;85;25662;-46
2023/01/10 04:56:55;;;;;;;72.70;29.70;;;;;;;5.79;100.00;99626.75;1676452;85;25747;-47
2023/01/10 04:59:21;;;;;;;73.33;35.75;;;;;;;5.78;100.00;99628.62;1677102;85;25570;-47
2023/01/10 05:01:49;;;;;;;73.87;35.98;;;;;;;5.79;100.00;99631.56;1677159;85;25579;-46
2023/01/10 05:04:18;;;;;;;85.38;55.50;;;;;;;5.80;100.00;99644.43;1677245;85;27430;-46
2023/01/10 05:06:48;;;;;;;84.10;67.10;;;;;;;5.81;100.00;99651.41;1649099;85;25484;-46
2023/01/10 05:09:14;;;;;;;108.30;96.60;;;;;;;5.81;100.00;99654.09;1677187;85;25601;-46
2023/01/10 05:11:40;;;;;;;102.62;92.05;;;;;;;5.81;100.00;99658.11;1696495;84;25425;-46
2023/01/10 05:14:09;;;;;;;113.20;101.10;;;;;;;5.80;100.00;99658.64;1705432;84;25523;-47
2023/01/10 05:16:38;;;;;;;110.08;98.27;;;;;;;5.79;100.00;99661.64;1705641;84;27301;-46
2023/01/10 05:19:04;;;;;;;112.55;100.97;;;;;;;5.79;100.00;99665.66;1705491;84;25809;-46
2023/01/10 05:21:30;;;;;;;104.90;93.78;;;;;;;5.78;100.00;99669.42;1705515;84;25439;-47
2023/01/10 05:23:56;;;;;;;110.30;99.17;;;;;;;5.77;100.00;99678.03;1705505;84;25448;-47
2023/01/10 05:26:24;;;;;;;107.45;95.90;;;;;;;5.77;100.00;99679.38;1705610;84;25405;-46
2023/01/10 05:28:53;;;;;;;109.25;97.57;;;;;;;5.77;100.00;99682.58;1705551;83;28116;-47
2023/01/10 05:31:19;;;;;;;111.15;94.05;;;;;;;5.78;100.00;99685.53;1691272;84;25483;-48
2023/01/10 05:33:49;;;;;;;106.52;95.65;;;;;;;5.77;100.00;99686.60;1705494;83;25530;-46
2023/01/10 05:36:18;;;;;;;110.97;99.85;;;;;;;5.75;100.00;99691.47;1705517;84;25484;-47
2023/01/10 05:38:47;;;;;;;108.97;96.97;;;;;;;5.75;100.00;99690.92;1705733;84;25454;-46
2023/01/10 05:41:15;;;;;;;109.67;97.82;;;;;;;5.75;100.00;99694.16;1705585;83;27770;-47
2023/01/10 05:43:43;;;;;;;107.07;96.30;;;;;;;5.75;100.00;99702.20;1705435;83;25524;-47
2023/01/10 05:46:12;;;;;;;111.77;99.50;;;;;;;5.74;100.00;99701.42;1691276;84;25557;-47
2023/01/10 05:48:38;;;;;;;107.10;95.57;;;;;;;5.73;100.00;99711.89;1705691;83;26163;-47
2023/01/10 05:51:07;;;;;;;107.40;95.90;;;;;;;5.75;100.00;99722.33;1705520;84;25432;-47
2023/01/10 05:53:36;;;;;;;109.22;97.53;;;;;;;5.75;100.00;99723.67;1705718;83;29555;-47
2023/01/10 05:56:06;;;;;;;107.05;95.95;;;;;;;5.75;100.00;99727.70;1705585;84;25583;-48
2023/01/10 05:58:36;;;;;;;108.17;96.85;;;;;;;5.75;100.00;99729.05;1705591;83;25566;-49
2023/01/10 06:01:04;;;;;;;110.63;98.85;;;;;;;5.75;100.00;99737.88;1705675;83;25717;-47
2023/01/10 06:03:30;;;;;;;106.40;94.97;;;;;;;5.73;100.00;99747.33;1705431;84;25569;-47
2023/01/10 06:05:58;;;;;;;108.97;97.05;;;;;;;5.72;100.00;99752.42;1704912;83;27362;-47
2023/01/10 06:08:26;;;;;;;110.32;98.33;;;;;;;5.72;100.00;99760.48;1705435;83;25605;-47
2023/01/10 06:10:52;;;;;;;111.88;97.67;;;;;;;5.71;100.00;99765.05;1707837;83;25402;-47
2023/01/10 06:13:24;;;;;;;113.65;101.20;;;;;;;5.69;100.00;99765.89;1717707;83;26276;-47
2023/01/10 06:15:53;;;;;;;107.30;95.70;;;;;;;5.70;100.00;99768.02;1717658;83;25591;-47
2023/01/10 06:18:21;;;;;;;111.35;99.47;;;;;;;5.68;100.00;99773.67;1692859;83;27497;-46
2023/01/10 06:20:48;;;;;;;107.12;95.90;;;;;;;5.69;100.00;99775.84;1717404;83;25556;-46
2023/01/10 06:23:16;;;;;;;117.22;101.50;;;;;;;5.67;100.00;99777.47;1717470;83;25648;-47
2023/01/10 06:25:45;;;;;;;110.50;94.40;;;;;;;5.69;100.00;99784.67;1717433;83;25487;-47
2023/01/10 06:28:15;;;;;;;107.80;96.22;;;;;;;5.69;100.00;99791.39;1717663;83;25566;-47
2023/01/10 06:30:43;;;;;;;;;;;;;;;5.70;100.00;99788.94;1720045;83;29555;-47
2023/01/10 06:33:11;;;;;;;105.03;94.10;;;;;;;5.72;100.00;99792.68;1687479;84;25495;-47
2023/01/10 06:35:39;;;;;;;107.20;95.60;;;;;;;5.71;100.00;99796.47;1705056;84;25461;-47
2023/01/10 06:38:08;;;;;;;110.42;96.08;;;;;;;5.67;100.00;99796.25;1705349;84;25618;-46
2023/01/10 06:40:39;;;;;;;102.30;81.82;;;;;;;5.73;100.00;99805.02;1705211;84;25641;-47
2023/01/10 06:43:07;;;;;;;86.37;64.27;;;;;;;5.70;100.00;99812.30;1705132;83;27286;-46
2023/01/10 06:45:33;;;;;;;96.97;81.40;;;;;;;5.71;100.00;99817.94;1705025;83;25522;-47
2023/01/10 06:48:03;;;;;;;105.30;76.37;;;;;;;5.70;100.00;99817.12;1705085;84;25532;-47
2023/01/10 06:50:30;;;;;;;110.55;98.67;;;;;;;5.70;100.00;99823.03;1705252;84;25511;-46
2023/01/10 06:53:03;;;;;;;106.72;95.20;;;;;;;5.69;100.00;99818.22;1705162;84;25611;-47
2023/01/10 06:55:31;;;;;;;94.10;66.87;;;;;;;5.70;100.00;99828.40;1705254;84;27339;-47
2023/01/10 06:58:03;;;;;;;123.58;101.65;;;;;;;5.69;100.00;99831.64;1705073;83;25708;-45
2023/01/10 07:00:33;;;;;;;118.15;104.83;;;;;;;5.71;100.00;99834.03;1705206;84;25577;-49
2023/01/10 07:03:03;;;;;;;117.87;98.67;;;;;;;5.71;100.00;99836.17;1705271;84;26234;-46
2023/01/10 07:05:32;;;;;;;115.82;101.47;;;;;;;5.71;100.00;99834.83;1705137;84;25536;-50
2023/01/10 07:08:01;;;;;;;113.12;97.33;;;;;;;5.72;100.00;99836.95;1705230;84;27430;-47
2023/01/10 07:10:30;;;;;;;111.77;99.72;;;;;;;5.71;100.00;99840.75;1705168;84;25619;-46
2023/01/10 07:12:58;;;;;;;109.45;94.67;;;;;;;5.73;100.00;99849.30;1713054;83;25581;-46
2023/01/10 07:15:29;;;;;;;110.68;98.67;;;;;;;5.71;100.00;99852.27;1705197;83;25531;-48
2023/01/10 07:17:58;;;;;;;119.57;97.17;;;;;;;5.72;100.00;99851.72;1705221;84;25644;-46
2023/01/10 07:20:27;;;;;;;116.35;96.12;;;;;;;5.72;100.00;99857.91;1705353;84;26659;-46
2023/01/10 07:23:00;;;;;;;116.47;98.03;;;;;;;5.71;100.00;99860.88;1705158;83;25532;-47
2023/01/10 07:25:29;;;;;;;114.45;97.78;;;;;;;5.71;100.00;99858.98;1705146;84;25447;-47
2023/01/10 07:27:56;;;;;;;106.00;94.67;;;;;;;5.72;100.00;99863.80;1705067;84;25442;-47
2023/01/10 07:30:24;;;;;;;122.87;96.95;;;;;;;5.72;100.00;99865.14;1705161;83;25458;-47
2023/01/10 07:32:57;;;;;;;109.85;97.85;;;;;;;5.72;100.00;99858.42;1705236;83;27283;-48
2023/01/10 07:35:25;;;;;;;109.15;96.42;;;;;;;5.71;100.00;99857.64;1712827;83;25961;-48
2023/01/10 07:37:53;;;;;;;115.80;103.32;;;;;;;5.72;100.00;99863.80;1705056;84;25458;-50
2023/01/10 07:40:19;;;;;;;107.17;95.72;;;;;;;5.72;100.00;99859.77;1688924;84;25465;-47
2023/01/10 07:42:45;;;;;;;113.88;96.37;;;;;;;5.71;100.00;99858.98;1705125;84;25397;-47
2023/01/10 07:45:12;;;;;;;116.40;96.97;;;;;;;5.72;100.00;99861.11;1705099;84;27981;-46
2023/01/10 07:47:38;;;;;;;120.37;96.42;;;;;;;5.72;100.00;99863.80;1704989;84;25580;-46
2023/01/10 07:50:08;;;;;;;112.97;100.22;;;;;;;5.72;100.00;99867.30;1705109;84;25619;-49
2023/01/10 07:52:37;;;;;;;114.37;97.12;;;;;;;5.73;100.00;99865.41;1704830;84;25556;-48
2023/01/10 07:55:07;;;;;;;128.35;99.03;;;;;;;5.73;100.00;99869.43;1705149;84;25478;-47
2023/01/10 07:57:36;;;;;;;120.70;97.20;;;;;;;5.73;100.00;99870.77;1705171;83;27320;-47
2023/01/10 08:00:07;;;;;;;116.95;97.15;;;;;;;5.74;100.00;99872.37;1705204;83;28028;-46
2023/01/10 08:02:36;;;;;;;122.58;99.62;;;;;;;5.74;100.00;99875.86;1705173;83;25491;-48
2023/01/10 08:05:06;;;;;;;110.03;96.32;;;;;;;5.74;100.00;99874.52;1705211;84;25545;-47
2023/01/10 08:07:35;;;;;;;114.77;97.27;;;;;;;5.74;100.00;99875.86;1705212;84;25579;-47
2023/01/10 08:10:07;;;;;;;112.77;96.42;;;;;;;5.76;100.00;99878.25;1705177;84;27926;-47
2023/01/10 08:12:36;;;;;;;112.68;97.10;;;;;;;5.76;100.00;99879.59;1704084;82;25690;-47
2023/01/10 08:15:06;;;;;;;119.20;97.55;;;;;;;5.77;100.00;99883.86;1703737;83;25572;-47
2023/01/10 08:17:37;;;;;;;114.55;96.25;;;;;;;5.75;100.00;99884.14;1703618;84;25417;-49
2023/01/10 08:20:08;;;;;;;108.55;96.67;;;;;;;5.76;100.00;99893.02;1721822;83;25577;-46
2023/01/10 08:22:34;;;;;;;113.45;95.92;;;;;;;5.77;100.00;99899.97;1679877;84;27345;-47
2023/01/10 08:25:01;;;;;;;116.37;95.85;;;;;;;5.77;100.00;99908.02;1701901;84;25559;-48
2023/01/10 08:27:28;;;;;;;112.65;96.85;;;;;;;5.76;100.00;99911.25;1702043;84;25566;-46
2023/01/10 08:29:54;;;;;;;114.25;99.05;;;;;;;5.74;100.00;99915.32;1702041;84;26292;-47
2023/01/10 08:32:23;;;;;;;118.67;97.35;;;;;;;5.72;100.00;99909.41;1702061;84;25557;-50
2023/01/10 08:34:49;;;;;;;121.02;96.85;;;;;;;5.77;100.00;99916.06;1702140;84;27388;-48
2023/01/10 08:37:15;;;;;;;121.92;96.53;;;;;;;5.76;100.00;99919.85;1701974;84;25440;-47
2023/01/10 08:39:42;;;;;;;120.08;97.95;;;;;;;5.77;100.00;99924.94;1701977;84;25479;-46
2023/01/10 08:42:09;;;;;;;120.45;95.67;;;;;;;5.76;100.00;99937.30;1701729;84;25894;-48
2023/01/10 08:44:39;;;;;;;120.50;96.20;;;;;;;5.74;100.00;99930.08;1702126;84;25397;-48
2023/01/10 08:47:05;;;;;;;112.68;94.50;;;;;;;5.74;100.00;99940.81;1679952;84;28083;-47
2023/01/10 08:49:31;;;;;;;121.85;97.12;;;;;;;5.75;100.00;99947.77;1701914;84;25718;-47
2023/01/10 08:51:57;;;;;;;111.92;94.87;;;;;;;5.73;100.00;99953.41;1702005;84;25545;-47
2023/01/10 08:54:26;;;;;;;123.60;95.55;;;;;;;5.72;100.00;99955.03;1701965;84;25475;-47
2023/01/10 08:56:52;;;;;;;86.78;68.50;;;;;;;5.72;100.00;99962.56;1702164;84;25692;-48
2023/01/10 08:59:20;;;;;;;105.32;93.97;;;;;;;5.72;100.00;99964.43;1702011;84;27521;-50
2023/01/10 09:01:49;;;;;;;107.12;95.38;;;;;;;5.73;100.00;99972.75;1701922;84;25473;-47
2023/01/10 09:04:18;;;;;;;105.58;93.65;;;;;;;5.72;100.00;99975.16;1702112;84;25562;-47
2023/01/10 09:06:45;;;;;;;112.65;92.25;;;;;;;5.66;100.00;99969.61;1702025;84;27452;-48
2023/01/10 09:09:14;;;;;;;108.32;92.20;;;;;;;5.72;100.00;99982.70;1701896;84;25417;-48
2023/01/10 09:11:40;;;;;;;103.83;92.80;;;;;;;5.73;100.00;99982.14;1704913;82;27445;-48
2023/01/10 09:14:06;;;;;;;109.20;92.97;;;;;;;5.73;100.00;99986.17;1734899;82;25654;-46
2023/01/10 09:16:37;;;;;;;106.47;93.80;;;;;;;5.73;100.00;99982.94;1734904;82;25622;-47
2023/01/10 09:19:03;;;;;;;114.08;96.55;;;;;;;5.75;100.00;99985.34;1735044;82;25922;-47
2023/01/10 09:21:32;;;;;;;111.42;95.53;;;;;;;5.76;100.00;99991.77;1719943;83;25628;-45
2023/01/10 09:24:02;;;;;;;104.23;93.15;;;;;;;5.76;100.00;99987.73;1695733;83;27387;-45
2023/01/10 09:26:31;;;;;;;105.55;94.17;;;;;;;5.79;100.00;99995.78;1719869;82;25555;-47
2023/01/10 09:29:00;;;;;;;105.52;93.22;;;;;;;5.82;100.00;99995.19;1734624;82;25565;-47
2023/01/10 09:31:29;;;;;;;111.17;95.92;;;;;;;5.84;100.00;99998.94;1734574;82;27528;-47
2023/01/10 09:33:55;;;;;;;104.43;93.10;;;;;;;5.86;100.00;99997.58;1703744;84;25480;-46
2023/01/10 09:36:22;;;;;;;106.85;95.07;;;;;;;5.85;100.00;99997.31;1734472;82;27312;-46
2023/01/10 09:38:50;;;;;;;116.57;99.13;;;;;;;5.87;100.00;99998.38;1703571;84;25822;-46
2023/01/10 09:41:31;;;;;;;110.72;93.85;;;;;;;5.88;100.00;100003.45;1734346;82;25529;-47
2023/01/10 09:44:38;;;;;;;103.65;91.82;;;;;;;5.88;100.00;100000.77;1732255;82;25787;-47
2023/01/10 09:47:32;;;;;;;105.80;94.15;;;;;;;5.88;100.00;100002.12;1734536;82;25453;-47
2023/01/10 09:50:25;;;;;;;107.10;95.62;;;;;;;5.89;100.00;99999.70;1643312;87;27552;-46
2023/01/10 09:53:18;;;;;;;104.87;91.95;;;;;;;5.90;100.00;99997.26;1672116;85;25648;-47
2023/01/10 09:55:53;;;;;;;112.25;95.83;;;;;;;5.89;100.00;99986.28;1671866;85;25661;-49
2023/01/10 09:58:26;;;;;;;105.87;94.32;;;;;;;5.91;100.00;99984.66;1671696;85;25588;-48
2023/01/10 10:01:18;;;;;;;113.62;95.20;;;;;;;5.90;100.00;99982.48;1672150;85;25617;-46
2023/01/10 10:04:05;;;;;;;108.30;93.87;;;;;;;5.92;100.00;99981.66;1672151;85;27989;-47
2023/01/10 10:06:34;;;;;;;115.37;95.20;;;;;;;5.94;100.00;99981.38;1672081;85;25517;-47
2023/01/10 10:09:03;;;;;;;105.37;93.80;;;;;;;5.94;100.00;99990.77;1672214;85;30083;-45
2023/01/10 10:11:55;;;;;;;106.12;94.83;;;;;;;5.93;100.00;99996.69;1672292;85;25545;-46
2023/01/10 10:14:50;;;;;;;106.35;95.12;;;;;;;5.92;100.00;99989.71;1633107;86;25586;-45
2023/01/10 10:17:53;;;;;;;116.05;95.15;;;;;;;5.94;100.00;99991.59;1632796;87;27635;-47
2023/01/10 10:20:44;;;;;;;111.52;94.77;;;;;;;5.95;100.00;99984.33;1586700;90;25620;-47
2023/01/10 10:23:43;;;;;;;108.78;93.90;;;;;;;5.96;100.00;99991.34;1587029;90;25568;-45
2023/01/10 10:26:37;;;;;;;111.60;95.70;;;;;;;5.94;100.00;99991.59;1604195;88;25547;-46
2023/01/10 10:29:24;;;;;;;106.63;95.07;;;;;;;5.94;100.00;99999.65;1616498;88;25700;-45
2023/01/10 10:32:28;;;;;;;108.78;97.30;;;;;;;5.95;100.00;99998.55;1587717;90;27375;-48
2023/01/10 10:35:09;;;;;;;106.07;94.05;;;;;;;5.96;100.00;100004.77;1569022;91;25664;-47
2023/01/10 10:37:45;;;;;;;106.92;94.47;;;;;;;5.94;100.00;100004.20;1587785;90;25861;-48
2023/01/10 10:40:24;;;;;;;105.78;94.25;;;;;;;5.95;100.00;100013.86;1568981;91;25494;-45
2023/01/10 10:42:59;;;;;;;111.20;94.90;;;;;;;5.94;100.00;100014.94;1587893;90;25591;-46
2023/01/10 10:45:39;;;;;;;112.52;93.85;;;;;;;5.95;100.00;100005.81;1569119;91;27417;-46
2023/01/10 10:48:38;;;;;;;110.92;93.33;;;;;;;5.97;100.00;100005.80;1587772;90;25553;-45
2023/01/10 10:51:41;;;;;;;108.17;94.37;;;;;;;5.94;100.00;100008.22;1576701;90;25585;-46
2023/01/10 10:54:12;;;;;;;105.95;95.17;;;;;;;5.94;100.00;100018.44;1625803;88;25713;-47
2023/01/10 10:56:43;;;;;;;106.72;95.70;;;;;;;5.93;100.00;100018.17;1622136;88;25642;-47
2023/01/10 10:59:17;;;;;;;109.37;97.62;;;;;;;5.94;100.00;100020.30;1592994;88;26813;-47
2023/01/10 11:01:50;;;;;;;110.90;96.60;;;;;;;5.92;100.00;100023.27;1587731;90;25340;-46
2023/01/10 11:04:22;;;;;;;109.12;97.53;;;;;;;5.92;100.00;100025.95;1614543;88;25648;-46
2023/01/10 11:06:52;;;;;;;107.58;96.57;;;;;;;5.95;100.00;100018.68;1587648;90;25517;-48
2023/01/10 11:09:41;;;;;;;105.07;94.37;;;;;;;5.95;100.00;100015.20;1685658;82;25531;-49
2023/01/10 11:12:20;;;;;;;102.55;91.90;;;;;;;5.93;100.00;100018.72;1701998;84;27337;-46
2023/01/10 11:14:51;;;;;;;99.67;89.15;;;;;;;5.90;100.00;100021.41;1725649;82;25410;-46
2023/01/10 11:17:26;;;;;;;103.17;92.67;;;;;;;5.92;100.00;100023.82;1725674;82;25454;-45
2023/01/10 11:20:01;;;;;;;104.70;93.52;;;;;;;5.90;100.00;100031.36;1725649;82;26188;-46
2023/01/10 11:22:34;;;;;;;100.92;90.85;;;;;;;5.89;100.00;100028.41;1702104;84;25616;-45
2023/01/10 11:25:04;;;;;;;100.80;90.53;;;;;;;5.88;100.00;100032.98;1725214;83;27397;-47
2023/01/10 11:27:41;;;;;;;105.45;94.70;;;;;;;5.89;100.00;100040.48;1702026;84;25475;-46
2023/01/10 11:30:22;;;;;;;104.35;93.58;;;;;;;5.88;100.00;100046.95;1724627;83;25443;-46
2023/01/10 11:33:05;;;;;;;104.87;94.10;;;;;;;5.87;100.00;100043.45;1702150;84;25486;-46
2023/01/10 11:35:40;;;;;;;103.97;93.25;;;;;;;5.88;100.00;100055.80;1723069;83;25643;-45
2023/01/10 11:38:17;;;;;;;103.67;91.97;;;;;;;5.89;100.00;100073.52;1702771;83;27217;-45
2023/01/10 11:41:18;;;;;;;105.17;93.70;;;;;;;5.88;100.00;100076.48;1725568;83;27280;-46
2023/01/10 11:43:44;;;;;;;104.23;93.27;;;;;;;5.87;100.00;100077.01;1725761;83;25398;-45
2023/01/10 11:46:20;;;;;;;107.55;96.25;;;;;;;5.89;100.00;100082.92;1725615;82;25933;-47